• Join FlightAware (Why Join?)
  • Login
  • US Flag 
12:39AM EDT


 

Airport Tracker/Info


-or-


 

Live Flight TrackerFlight Track Log ✈ UPS37 ✈ 23-Jun-2013 ✈ YSSY / SYD - ZGSZ / SZX

Flight Track Log - Related Links

Times and Time Zones

All times are in EDT time to prevent confusion due to time zone crossing. See the UPS37 flight status page for this flight to view local times or setup timezone preferences in your user account.

Time Position Orientation Groundspeed Altitude Reporting Facility
EDT Latitude Longitude Course Direction KTS MPH feet Rate Location/Type
04:37AM -33.9310 151.1690 278° West 3 3  Level FlightAware
04:38AM -33.9320 151.1690 180° South 1 1 60 Level FlightAware
04:40AM -33.7529 150.9589 316° Northwest  Level FlightAware Approximate
04:41AM -33.6633 150.8541 316° Northwest  Level FlightAware Approximate
04:42AM -33.5735 150.7496 316° Northwest  Level FlightAware Approximate
04:42AM -33.9310 151.1690 316° Northwest 5 6  Level FlightAware
04:43AM -33.9300 151.1690 360° North 8 9 180 Level FlightAware
04:43AM -33.9300 151.1700 90° East 3 3 240 Level FlightAware
04:46AM -33.7254 150.9288 316° Northwest  Level FlightAware Approximate
04:46AM -33.9300 151.1720 316° Northwest 5 6  Level FlightAware
04:47AM -33.9390 151.1740 170° South 140 161 780 Level FlightAware
04:47AM -33.9570 151.1780 170° South 148 170 1,000 2,700 Climbing FlightAware
04:48AM -33.9790 151.1730 191° South 168 193 2,500 2,460 Climbing FlightAware
04:48AM -34.0040 151.1690 188° South 201 231 3,500 1,680 Climbing FlightAware
04:49AM -34.0360 151.1640 187° South 256 295 4,200 1,980 Climbing FlightAware
04:49AM -34.0540 151.1610 188° South 262 302 5,000 3,420 Climbing FlightAware
04:49AM -34.0820 151.1560 188° South 271 312 6,500 3,420 Climbing FlightAware
04:49AM -34.0950 151.1540 188° South 277 319 7,000 3,900 Climbing FlightAware
04:50AM -34.1390 151.1396 188° South 285 328 9,300 3,480 Climbing Aus ATC (RADAR)
04:50AM -34.1500 151.1240 204° Southwest 301 346 9,700 1,980 Climbing FlightAware
04:50AM -34.1600 151.0950 247° West 320 368 10,300 1,320 Climbing FlightAware
04:51AM -34.1620 151.0420 267° West 351 404 11,200 1,440 Climbing FlightAware
04:52AM -34.1300 150.9810 302° West 382 440 12,100 3,240 Climbing FlightAware
04:52AM -34.0840 150.9590 338° Northwest 382 440 13,700 3,180 Climbing FlightAware
04:53AM -34.0000 150.9360 347° North 398 458 15,900 2,760 Climbing FlightAware
04:53AM -33.9370 150.9130 347° North 403 464 17,600 3,600 Climbing FlightAware
04:54AM -33.9210 150.9071 347° North 386 444 18,300 2,820 Climbing Aus ATC (RADAR)
04:54AM -33.8620 150.8850 343° North 408 470 19,600 2,760 Climbing FlightAware
04:55AM -33.7854 150.8533 343° North 398 458 21,800 2,340 Climbing Aus ATC (RADAR)
04:55AM -33.7930 150.8570 343° North 415 478 21,200 1,560 Descending FlightAware
04:56AM -33.7050 150.8200 341° North 423 487 23,100 2,760 Climbing FlightAware
04:56AM -33.6384 150.7924 341° North 405 466 24,800 2,220 Climbing Aus ATC (RADAR)
04:56AM -33.6320 150.7890 341° North 431 496 24,500 1,200 Descending FlightAware
04:57AM -33.5670 150.7436 341° North 431 496 25,600 1,140 Climbing Aus ATC (RADAR)
04:57AM -33.5520 150.7280 341° North 466 536 25,400 1,440 Descending FlightAware
04:58AM -33.4880 150.6520 341° North 473 544 26,900 2,760 Climbing FlightAware
04:58AM -33.4807 150.6430 341° North 457 526 27,400 2,700 Climbing Aus ATC (RADAR)
04:58AM -33.4295 150.5815 341° North 462 532 28,600 1,500 Climbing Aus ATC (RADAR)
04:58AM -33.4180 150.5680 341° North 475 547 28,500 2,400 Descending FlightAware
04:59AM -33.3481 150.4875 341° North 456 525 30,600 2,220 Climbing Aus ATC (RADAR)
04:59AM -33.3480 150.4880 341° North 471 542 30,200 2,160 Descending FlightAware
05:00AM -33.2960 150.4290 317° Northwest 452 520 32,000 2,460 Climbing FlightAware
05:01AM -33.2270 150.3490 316° Northwest 446 513 33,600 1,740 Climbing FlightAware
05:01AM -33.1700 150.2830 316° Northwest 445 512 34,500 1,380 Climbing FlightAware
05:02AM -33.1040 150.2080 316° Northwest 444 511 35,500 1,080 Climbing FlightAware
05:03AM -33.0510 150.1480 316° Northwest 445 512 36,000 1,380 Climbing FlightAware
05:03AM -33.0448 150.1400 316° Northwest 439 505 36,400 660 Climbing Aus ATC (RADAR)
05:03AM -32.9909 150.0788 316° Northwest 427 491 36,400 -540 Level Aus ATC (RADAR)
05:03AM -32.9840 150.0720 316° Northwest 434 499 36,000  Descending FlightAware
05:04AM -32.9182 149.9962 316° Northwest 425 489 36,400  Climbing Aus ATC (RADAR)
05:04AM -32.9180 149.9960 316° Northwest 432 497 36,000  Descending FlightAware
05:05AM -32.8699 149.9408 316° Northwest 434 499 36,400  Climbing Aus ATC (RADAR)
05:05AM -32.8570 149.9270 316° Northwest 440 506 36,000  Descending FlightAware
05:05AM -32.7935 149.8549 316° Northwest 428 493 36,400  Climbing Aus ATC (RADAR)
05:05AM -32.7900 149.8520 316° Northwest 438 504 36,000 -660 Descending FlightAware
05:06AM -32.7390 149.7950 317° Northwest 431 496 36,000  Level FlightAware
05:07AM -32.6680 149.7140 316° Northwest 430 495 36,000  Level FlightAware
05:07AM -32.6130 149.6530 317° Northwest 427 491 36,000 180 Level FlightAware
05:08AM -32.5410 149.5811 317° Northwest 430 495 36,300  Climbing Aus ATC (RADAR)
05:08AM -32.5370 149.5800 317° Northwest 441 507 36,000 -480 Descending FlightAware
05:09AM -32.4710 149.5400 333° Northwest 435 501 36,000 180 Level FlightAware
05:10AM -32.3981 149.4965 333° Northwest 442 509 36,300  Climbing Aus ATC (RADAR)
05:10AM -32.3910 149.4920 333° Northwest 436 502 36,000 -420 Descending FlightAware
05:10AM -32.3080 149.4430 333° Northwest 438 504 36,000  Level FlightAware
05:11AM -32.2330 149.3990 334° Northwest 438 504 36,000 60 Level FlightAware
05:12AM -32.1650 149.3590 334° Northwest 446 513 36,100  Climbing FlightAware
05:12AM -32.0840 149.3110 333° Northwest 446 513 36,000 120 Descending FlightAware
05:13AM -31.9981 149.2604 333° Northwest 439 505 36,300 60 Climbing Aus ATC (RADAR)
05:13AM -31.9760 149.2480 333° Northwest 447 514 36,100  Descending FlightAware
05:14AM -31.9059 149.2054 333° Northwest 438 504 36,300 -180 Climbing Aus ATC (RADAR)
05:14AM -31.9000 149.2020 333° Northwest 446 513 36,000 -420 Descending FlightAware
05:15AM -31.8180 149.1540 333° Northwest 446 513 36,000 360 Level FlightAware
05:15AM -31.8132 149.1514 333° Northwest 439 505 36,300  Climbing Aus ATC (RADAR)
05:15AM -31.7440 149.1110 334° Northwest 446 513 36,000 -240 Descending FlightAware
05:16AM -31.6690 149.0680 334° Northwest 446 513 36,000  Level FlightAware
05:17AM -31.5870 149.0190 333° Northwest 438 504 36,000 180 Level FlightAware
05:17AM -31.5211 148.9806 333° Northwest 446 513 36,300  Climbing Aus ATC (RADAR)
05:18AM -31.5120 148.9760 333° Northwest 446 513 36,000 -300 Descending FlightAware
05:18AM -31.4390 148.9340 333° Northwest 445 512 36,100 360 Climbing FlightAware
05:18AM -31.4285 148.9274 333° Northwest 446 513 36,300 -180 Climbing Aus ATC (RADAR)
05:19AM -31.3540 148.8840 333° Northwest 437 503 36,000 -240 Descending FlightAware
05:20AM -31.2720 148.8370 334° Northwest 445 512 36,000  Level FlightAware
05:20AM -31.1990 148.7940 333° Northwest 445 512 36,000 240 Level FlightAware
05:21AM -31.1302 148.7556 333° Northwest 440 506 36,300  Climbing Aus ATC (RADAR)
05:21AM -31.1140 148.7460 333° Northwest 445 512 36,000 -420 Descending FlightAware
05:22AM -31.0440 148.7050 333° Northwest 437 503 36,000 180 Level FlightAware
05:22AM -30.9645 148.6596 333° Northwest 440 506 36,300  Climbing Aus ATC (RADAR)
05:22AM -30.9670 148.6610 333° Northwest 445 512 36,000  Descending FlightAware
05:23AM -30.9001 148.6229 333° Northwest 438 504 36,300  Climbing Aus ATC (RADAR)
05:23AM -30.8830 148.6130 333° Northwest 445 512 36,000  Descending FlightAware
05:24AM -30.8077 148.5703 333° Northwest 439 505 36,300  Climbing Aus ATC (RADAR)
05:24AM -30.8100 148.5710 333° Northwest 445 512 36,000 -480 Descending FlightAware
05:25AM -30.7350 148.5280 334° Northwest 436 502 36,000  Level FlightAware
05:25AM -30.6520 148.4810 334° Northwest 436 502 36,000 180 Level FlightAware
05:26AM -30.5871 148.4442 334° Northwest 436 502 36,300  Climbing Aus ATC (RADAR)
05:26AM -30.5780 148.4390 334° Northwest 436 502 36,000 -240 Descending FlightAware
05:27AM -30.4960 148.3930 334° Northwest 435 501 36,100 180 Climbing FlightAware
05:27AM -30.4215 148.3506 334° Northwest 437 503 36,300  Climbing Aus ATC (RADAR)
05:28AM -30.4060 148.3400 334° Northwest 433 498 36,100  Descending FlightAware
05:28AM -30.3309 148.2989 334° Northwest 433 498 36,300 -180 Climbing Aus ATC (RADAR)
05:28AM -30.3280 148.2960 334° Northwest 432 497 36,000 -420 Descending FlightAware
05:29AM -30.2720 148.2630 333° Northwest 432 497 36,000  Level FlightAware
05:30AM -30.2010 148.2210 333° Northwest 432 497 36,000  Level FlightAware
05:30AM -30.1460 148.1890 333° Northwest 432 497 36,000  Level FlightAware
05:31AM -30.0730 148.1460 333° Northwest 432 497 36,000  Level FlightAware
05:32AM -30.0190 148.1140 333° Northwest 432 497 36,000  Level FlightAware
05:33AM -29.9450 148.0700 333° Northwest 432 497 36,000  Level FlightAware
05:33AM -29.8900 148.0380 333° Northwest 432 497 36,000  Level FlightAware
05:34AM -29.8180 147.9950 333° Northwest 432 497 36,000  Level FlightAware
05:35AM -29.7630 147.9630 333° Northwest 432 497 36,000  Level FlightAware
05:35AM -29.6900 147.9210 333° Northwest 432 497 36,000 180 Level FlightAware
05:36AM -29.5653 147.7269 333° Northwest 421 484 36,300  Climbing Aus ATC (RADAR)
05:36AM -29.6360 147.8890 333° Northwest 432 497 36,000 -360 Descending FlightAware
05:37AM -29.5630 147.8460 333° Northwest 432 497 36,000  Level FlightAware
05:37AM -29.5090 147.8140 333° Northwest 432 497 36,000 120 Level FlightAware
05:38AM -29.3206 147.5177 333° Northwest 422 486 36,300 120 Climbing Aus ATC (RADAR)
05:39AM -29.2413 147.4501 323° Northwest 423 487 36,300  Level Aus ATC (RADAR)
05:40AM -29.1855 147.4026 323° Northwest 425 489 36,300  Level Aus ATC (RADAR)
05:41AM -29.0368 147.2763 323° Northwest 431 496 36,300 -60 Level Aus ATC (RADAR)
05:47AM -28.5088 146.8315 324° Northwest 36,000 -60 Descending Aus ATC (Calculated)
05:49AM -28.3479 146.7016 323° Northwest  Level Estimated
05:50AM -28.2496 146.6194 324° Northwest  Level FlightAware Approximate
05:51AM -28.1513 146.5373 324° Northwest  Level FlightAware Approximate
05:52AM -28.0529 146.4554 324° Northwest  Level FlightAware Approximate
05:52AM -28.0014 146.4094 324° Northwest 36,000  Level Aus ATC (Calculated)
05:54AM -27.8419 146.2778 324° Northwest  Level FlightAware Approximate
05:55AM -27.7432 146.1966 324° Northwest  Level FlightAware Approximate
05:56AM -27.6445 146.1155 324° Northwest  Level FlightAware Approximate
05:57AM -27.5457 146.0346 324° Northwest  Level FlightAware Approximate
05:57AM -27.5244 146.0172 324° Northwest 36,000  Level Aus ATC (Calculated)
05:59AM -27.3630 145.8854 324° Northwest  Level FlightAware Approximate
06:00AM -27.2641 145.8049 324° Northwest  Level FlightAware Approximate
06:01AM -27.1651 145.7246 324° Northwest  Level FlightAware Approximate
06:01AM -27.1527 145.7145 324° Northwest 36,000  Level Aus ATC (Calculated)
06:03AM -27.0241 145.5434 310° West  Level FlightAware Approximate
06:03AM -26.9304 145.5348 324° Northwest 36,000  Level Aus ATC (Calculated)
06:05AM -27.0905 145.6642 144° Southeast  Level FlightAware Approximate
06:06AM -27.1896 145.7444 144° Southeast  Level FlightAware Approximate
06:06AM -26.6335 145.2963 143° Southeast 36,000  Level Aus ATC (Calculated)
06:06AM -26.6500 145.3100 144° Southeast 424 488 36,000  Level FlightAware
06:07AM -26.5770 145.2510 324° Northwest 424 488 36,000  Level FlightAware
06:08AM -26.5150 145.2010 324° Northwest 425 489 36,000  Level FlightAware
06:08AM -26.4490 145.1490 325° Northwest 430 495 36,000  Level FlightAware
06:09AM -26.3600 145.0770 324° Northwest 433 498 36,000 60 Level FlightAware
06:10AM -26.2930 145.0250 325° Northwest 435 501 36,100 60 Climbing FlightAware
06:10AM -26.2410 144.9840 325° Northwest 436 502 36,100 -120 Level FlightAware
06:11AM -26.1131 144.8819 144° Southeast 36,000 -180 Descending Aus ATC (Calculated)
06:11AM -26.1660 144.9240 325° Northwest 432 497 36,000  Level FlightAware
06:12AM -26.1010 144.8720 324° Northwest 430 495 36,000  Level FlightAware
06:12AM -26.0340 144.8190 325° Northwest 426 490 36,000  Level FlightAware
06:13AM -25.9690 144.7680 325° Northwest 423 487 36,000  Level FlightAware
06:13AM -25.9111 144.7223 323° Northwest 36,000  Level Aus ATC (Calculated)
06:14AM -25.9060 144.7180 324° Northwest 419 482 36,000  Level FlightAware
06:14AM -25.8330 144.6610 325° Northwest 418 481 36,000  Level FlightAware
06:15AM -25.7700 144.6120 325° Northwest 417 480 36,000  Level FlightAware
06:16AM -25.7090 144.5630 324° Northwest 418 481 36,000  Level FlightAware
06:16AM -25.5925 144.4720 145° Southeast 36,000  Level Aus ATC (Calculated)
06:17AM -25.6420 144.5100 324° Northwest 420 483 36,000 180 Level FlightAware
06:17AM -25.5393 144.4304 145° Southeast 36,000 240 Level Aus ATC (Calculated)
06:17AM -25.5730 144.4570 325° Northwest 419 482 36,200 840 Climbing FlightAware
06:18AM -25.5070 144.4050 325° Northwest 424 488 36,900 1,140 Climbing FlightAware
06:19AM -25.4420 144.3540 325° Northwest 418 481 37,800 720 Climbing FlightAware
06:19AM -25.3720 144.3000 325° Northwest 415 478 38,000 60 Climbing FlightAware
06:20AM -25.2650 144.2160 325° Northwest 418 481 38,000  Level FlightAware
06:21AM -25.1960 144.1630 325° Northwest 419 482 38,000  Level FlightAware
06:22AM -25.1510 144.1280 325° Northwest 421 484 38,000  Level FlightAware
06:22AM -25.1136 144.0988 326° Northwest 36,000  Descending Aus ATC (Calculated)
06:22AM -25.0860 144.0780 325° Northwest 424 488 38,000 1,500 Climbing FlightAware
06:23AM -25.0200 144.0260 324° Northwest 426 490 38,000  Level FlightAware
06:24AM -24.9480 143.9710 325° Northwest 427 491 38,000  Level FlightAware
06:24AM -24.8810 143.9180 324° Northwest 427 491 38,000  Level FlightAware
06:25AM -24.8130 143.8660 325° Northwest 426 490 38,000  Level FlightAware
06:26AM -24.7670 143.8300 325° Northwest 426 490 38,000  Level FlightAware
06:26AM -24.6990 143.7790 326° Northwest 424 488 38,000  Level FlightAware
06:27AM -24.6338 143.7286 150° Southeast 36,000  Descending Aus ATC (Calculated)
06:27AM -24.6360 143.7300 325° Northwest 424 488 38,000 2,100 Climbing FlightAware
06:28AM -24.5670 143.6770 325° Northwest 424 488 38,000  Level FlightAware
06:28AM -24.4990 143.6250 325° Northwest 427 491 38,000  Level FlightAware
06:29AM -24.4310 143.5730 325° Northwest 430 495 38,000  Level FlightAware
06:30AM -24.3590 143.5180 325° Northwest 433 498 38,000 60 Level FlightAware
06:31AM -24.2930 143.4670 325° Northwest 436 502 38,100 60 Climbing FlightAware
06:31AM -24.2600 143.4426 325° Northwest 36,000  Descending Aus ATC (Calculated)
06:31AM -24.2200 143.4120 325° Northwest 440 506 38,100 1,920 Climbing FlightAware
06:32AM -24.1530 143.3610 325° Northwest 440 506 38,100 -120 Level FlightAware
06:33AM -24.0790 143.3050 325° Northwest 438 504 38,000 -120 Descending FlightAware
06:33AM -24.0090 143.2520 325° Northwest 437 503 38,000  Level FlightAware
06:34AM -23.9390 143.1980 325° Northwest 437 503 38,000  Level FlightAware
06:35AM -23.8690 143.1450 325° Northwest 436 502 38,000  Level FlightAware
06:35AM -23.8160 143.1060 326° Northwest 436 502 38,000  Level FlightAware
06:36AM -23.6990 143.0173 146° Southeast 36,000  Descending Aus ATC (Calculated)
06:36AM -23.7460 143.0520 325° Northwest 436 502 38,000 1,980 Climbing FlightAware
06:37AM -23.6690 142.9950 325° Northwest 438 504 38,000  Level FlightAware
06:37AM -23.6030 142.9450 325° Northwest 440 506 38,000  Level FlightAware
06:38AM -23.5360 142.8940 325° Northwest 441 507 38,000 60 Level FlightAware
06:39AM -23.4640 142.8400 325° Northwest 444 511 38,100 60 Climbing FlightAware
06:40AM -23.3890 142.7840 326° Northwest 446 513 38,100  Level FlightAware
06:40AM -23.3150 142.7290 326° Northwest 447 514 38,100  Level FlightAware
06:41AM -23.2072 142.6481 145° Southeast 36,000  Descending Aus ATC (Calculated)
06:41AM -23.2470 142.6780 325° Northwest 447 514 38,100 2,340 Climbing FlightAware
06:42AM -23.1780 142.6270 325° Northwest 447 514 38,000 -120 Descending FlightAware
06:42AM -23.1030 142.5700 325° Northwest 447 514 38,000  Level FlightAware
06:43AM -23.0320 142.5170 326° Northwest 445 512 38,000  Level FlightAware
06:44AM -22.9770 142.4770 326° Northwest 444 511 38,000  Level FlightAware
06:44AM -22.9190 142.4330 325° Northwest 443 510 38,000  Level FlightAware
06:45AM -22.8580 142.3880 326° Northwest 444 511 38,000  Level FlightAware
06:45AM -22.7810 142.3310 326° Northwest 446 513 38,000  Level FlightAware
06:46AM -22.7144 142.2817 305° West 36,000  Descending Aus ATC (Calculated)
06:46AM -22.7140 142.2810 325° Northwest 449 517 38,000 1,920 Climbing FlightAware
06:47AM -22.6390 142.2260 325° Northwest 451 519 38,100 60 Climbing FlightAware
06:47AM -22.5830 142.1850 326° Northwest 453 521 38,100  Level FlightAware
06:48AM -22.5030 142.1254 144° Southeast 36,000  Descending Aus ATC (Calculated)
06:48AM -22.5140 142.1340 326° Northwest 454 522 38,100 2,820 Climbing FlightAware
06:49AM -22.4450 142.0830 326° Northwest 454 522 38,100  Level FlightAware
06:49AM -22.3680 142.0260 326° Northwest 453 521 38,100 -120 Level FlightAware
06:50AM -22.2914 141.9696 304° West 36,000 -180 Descending Aus ATC (Calculated)
06:50AM -22.2910 141.9690 326° Northwest 452 520 38,000 1,800 Climbing FlightAware
06:51AM -22.2220 141.9190 326° Northwest 450 518 38,000  Level FlightAware
06:52AM -22.1470 141.8640 326° Northwest 449 517 38,000  Level FlightAware
06:52AM -22.0890 141.8210 326° Northwest 447 514 38,000  Level FlightAware
06:53AM -22.0360 141.7810 325° Northwest 447 514 38,000  Level FlightAware
06:53AM -21.9499 141.7194 321° Northwest 36,000  Descending Aus ATC (Calculated)
06:54AM -21.9460 141.7160 326° Northwest 449 517 38,000 1,680 Climbing FlightAware
06:54AM -21.8850 141.6720 326° Northwest 451 519 38,000  Level FlightAware
06:55AM -21.8190 141.6240 326° Northwest 454 522 38,000 60 Level FlightAware
06:55AM -21.7420 141.5670 325° Northwest 458 527 38,100 60 Climbing FlightAware
06:56AM -21.6920 141.5310 326° Northwest 461 531 38,100  Level FlightAware
06:57AM -21.6220 141.4810 326° Northwest 463 533 38,100  Level FlightAware
06:57AM -21.5400 141.4210 326° Northwest 460 529 38,100 -120 Level FlightAware
06:58AM -21.4175 141.3324 146° Southeast 36,000 -240 Descending Aus ATC (Calculated)
06:58AM -21.4860 141.3820 326° Northwest 457 526 38,000 2,820 Climbing FlightAware
06:59AM -21.4150 141.3300 326° Northwest 453 521 38,000  Level FlightAware
06:59AM -21.3420 141.2770 326° Northwest 450 518 38,000  Level FlightAware
07:00AM -21.2640 141.2220 327° Northwest 448 516 38,000  Level FlightAware
07:01AM -21.1920 141.1690 326° Northwest 449 517 38,000  Level FlightAware
07:01AM -21.1160 141.1150 326° Northwest 453 521 38,000  Level FlightAware
07:02AM -21.0460 141.0640 326° Northwest 457 526 38,000 60 Level FlightAware
07:03AM -20.9760 141.0140 326° Northwest 460 529 38,100  Climbing FlightAware
07:03AM -20.9435 140.9906 326° Northwest 36,000 -180 Descending Aus ATC (Calculated)
07:04AM -20.8940 140.9550 326° Northwest 463 533 38,000 1,500 Climbing FlightAware
07:04AM -20.8249 140.9055 129° Southeast 36,000  Descending Aus ATC (Calculated)
07:04AM -20.8260 140.9070 327° Northwest 462 532 38,000 2,340 Climbing FlightAware
07:05AM -20.7580 140.8580 326° Northwest 461 531 38,000  Level FlightAware
07:06AM -20.6830 140.8040 326° Northwest 461 531 38,000  Level FlightAware
07:06AM -20.6100 140.7520 326° Northwest 460 529 38,000  Level FlightAware
07:07AM -20.5390 140.7010 326° Northwest 460 529 38,000  Level FlightAware
07:07AM -20.4780 140.6580 327° Northwest 460 529 38,000  Level FlightAware
07:08AM -20.4094 140.6087 147° Southeast 36,000  Descending Aus ATC (Calculated)
07:08AM -20.4240 140.6190 326° Northwest 459 528 38,000 2,700 Climbing FlightAware
07:09AM -20.3580 140.5720 326° Northwest 459 528 38,000  Level FlightAware
07:09AM -20.2860 140.5210 326° Northwest 461 531 38,000  Level FlightAware
07:10AM -20.2200 140.4740 326° Northwest 464 534 38,000  Level FlightAware
07:11AM -20.0534 140.3498 142° Southeast 38,000 60 Level Aus ATC (Calculated)
07:11AM -20.1010 140.3890 326° Northwest 462 532 38,100 120 Climbing FlightAware
07:12AM -20.0300 140.3300 322° Northwest 463 533 38,100  Level FlightAware
07:12AM -19.9690 140.2810 323° Northwest 464 534 38,100  Level FlightAware
07:13AM -19.8960 140.2220 323° Northwest 466 536 38,100 -120 Level FlightAware
07:14AM -19.8340 140.1710 322° Northwest 466 536 38,000 -120 Descending FlightAware
07:14AM -19.7520 140.1050 323° Northwest 463 533 38,000  Level FlightAware
07:15AM -19.6710 140.0400 323° Northwest 461 531 38,000  Level FlightAware
07:16AM -19.5821 139.9681 144° Southeast 38,000  Level Aus ATC (Calculated)
07:16AM -19.6100 139.9900 322° Northwest 460 529 38,000  Level FlightAware
07:17AM -19.5350 139.9300 323° Northwest 457 526 38,000  Level FlightAware
07:17AM -19.4950 139.8980 323° Northwest 456 525 38,000  Level FlightAware
07:18AM -19.4240 139.8400 322° Northwest 456 525 38,000  Level FlightAware
07:18AM -19.3500 139.7810 323° Northwest 460 529 38,000  Level FlightAware
07:19AM -19.2730 139.7190 323° Northwest 463 533 38,000 60 Level FlightAware
07:20AM -19.2170 139.6750 323° Northwest 466 536 38,100 60 Climbing FlightAware
07:20AM -19.1420 139.6140 322° Northwest 469 540 38,100  Level FlightAware
07:21AM -19.0508 139.5412 144° Southeast 38,000  Descending Aus ATC (Calculated)
07:21AM -19.0710 139.5570 322° Northwest 471 542 38,100 60 Climbing FlightAware
07:22AM -18.9960 139.4970 323° Northwest 472 543 38,100 -120 Level FlightAware
07:23AM -18.9100 139.4290 323° Northwest 472 543 38,000 -120 Descending FlightAware
07:23AM -18.8144 139.3524 143° Southeast 38,000  Level Aus ATC (Calculated)
07:23AM -18.8530 139.3830 323° Northwest 471 542 38,000  Level FlightAware
07:24AM -18.8000 139.3410 323° Northwest 469 540 38,000  Level FlightAware
07:24AM -18.7370 139.2910 323° Northwest 468 539 38,000  Level FlightAware
07:25AM -18.6580 139.2280 323° Northwest 466 536 38,000  Level FlightAware
07:26AM -18.5880 139.1720 323° Northwest 464 534 38,000  Level FlightAware
07:26AM -18.5185 139.1171 142° Southeast 38,000  Level Aus ATC (Calculated)
07:26AM -18.5280 139.1250 323° Northwest 464 534 38,000  Level FlightAware
07:27AM -18.4580 139.0690 323° Northwest 466 536 38,000  Level FlightAware
07:28AM -18.3860 139.0120 323° Northwest 471 542 38,000 60 Level FlightAware
07:28AM -18.3120 138.9530 323° Northwest 473 544 38,100 60 Climbing FlightAware
07:29AM -18.2350 138.8930 323° Northwest 476 548 38,100  Level FlightAware
07:29AM -18.1335 138.8124 143° Southeast 38,000  Descending Aus ATC (Calculated)
07:30AM -18.1680 138.8400 323° Northwest 479 551 38,100 60 Climbing FlightAware
07:30AM -18.0860 138.7750 323° Northwest 481 554 38,100 -120 Level FlightAware
07:31AM -18.0120 138.7170 323° Northwest 479 551 38,000 -120 Descending FlightAware
07:32AM -17.9080 138.6350 323° Northwest 477 549 38,000  Level FlightAware
07:33AM -17.8370 138.5780 323° Northwest 475 547 38,000  Level FlightAware
07:34AM -17.7830 138.5360 323° Northwest 475 547 38,000  Level FlightAware
07:34AM -17.7290 138.4930 323° Northwest 475 547 38,000  Level FlightAware
07:34AM -17.6438 138.4274 147° Southeast 38,000  Level Aus ATC (Calculated)
07:35AM -17.6580 138.4370 323° Northwest 475 547 38,000  Level FlightAware
07:36AM -17.6020 138.3930 323° Northwest 475 547 38,000  Level FlightAware
07:36AM -17.5290 138.3350 323° Northwest 475 547 38,000  Level FlightAware
07:37AM -17.4580 138.2790 323° Northwest 475 547 38,000  Level FlightAware
07:38AM -17.4040 138.2360 323° Northwest 475 547 38,000  Level FlightAware
07:38AM -17.3680 138.2080 323° Northwest 475 547 38,000  Level FlightAware
07:39AM -17.2950 138.1500 323° Northwest 475 547 38,000  Level FlightAware
07:39AM -17.1088 138.0098 145° Southeast 38,000  Level Aus ATC (Calculated)
07:39AM -17.1088 138.0098 145° Southeast 38,000  Level Aus ATC (Calculated)
07:40AM -17.2410 138.1080 323° Northwest 475 547 38,000  Level FlightAware
07:40AM -17.1700 138.0520 323° Northwest 475 547 38,000  Level FlightAware
07:41AM -17.1160 138.0090 323° Northwest 475 547 38,000  Level FlightAware
07:42AM -17.0440 137.9530 323° Northwest 475 547 38,000  Level FlightAware
07:42AM -16.9910 137.9100 322° Northwest 475 547 38,000  Level FlightAware
07:44AM -16.5728 137.5946 323° Northwest 38,000  Level Aus ATC (Calculated)
07:45AM -16.7797 137.7473 324° Northwest  Level FlightAware Approximate
07:46AM -16.6814 137.6718 324° Northwest  Level FlightAware Approximate
07:47AM -16.3405 137.4155 324° Northwest  Level FlightAware Approximate
07:48AM -16.2423 137.3400 324° Northwest  Level FlightAware Approximate
07:48AM -16.1703 137.2847 323° Northwest 38,000  Level Aus ATC (Calculated)
07:49AM -16.1441 137.2645 324° Northwest  Level FlightAware Approximate
07:50AM -15.9935 137.1490 324° Northwest  Level FlightAware Approximate
07:50AM -15.9913 137.1473 323° Northwest 38,000  Level Aus ATC (Calculated)
07:52AM -15.8061 137.0056 324° Northwest  Level FlightAware Approximate
07:52AM -15.7673 136.9760 323° Northwest 38,000  Level Aus ATC (Calculated)
07:54AM -15.5886 136.8396 324° Northwest  Level FlightAware Approximate
07:55AM -15.4902 136.7646 324° Northwest  Level FlightAware Approximate
07:55AM -15.4536 136.7367 323° Northwest 38,000  Level Aus ATC (Calculated)
07:56AM -15.3195 136.6348 323° Northwest 38,000  Level Aus ATC (Calculated)
07:58AM -15.4639 136.7446 144° Southeast  Level FlightAware Approximate
07:59AM -15.3654 136.6697 324° Northwest  Level FlightAware Approximate
08:00AM -15.2696 136.5969 324° Northwest  Level FlightAware Approximate
08:01AM -15.1711 136.5222 324° Northwest  Level FlightAware Approximate
08:03AM -14.9741 136.3729 324° Northwest  Level FlightAware Approximate
08:04AM -14.5584 136.0505 324° Northwest 486 559 38,100  Level Aus ATC (RADAR)
08:05AM -14.3519 135.8977 324° Northwest 504 580 38,300 -60 Climbing Aus ATC (RADAR)
08:06AM -14.2587 135.8297 325° Northwest 490 564 38,000 -120 Descending Aus ATC (RADAR)
08:08AM -14.1157 135.7206 323° Northwest 475 547 38,100  Climbing Aus ATC (RADAR)
08:08AM -14.0091 135.6443 325° Northwest 492 566 38,000  Descending Aus ATC (RADAR)
08:09AM -13.9204 135.5762 323° Northwest 479 551 38,100  Climbing Aus ATC (RADAR)
08:11AM -13.6888 135.4002 324° Northwest 459 528 38,100  Level Aus ATC (RADAR)
08:12AM -13.5919 135.3320 326° Northwest 472 543 38,100  Level Aus ATC (RADAR)
08:13AM -13.4880 135.2556 324° Northwest 487 560 38,200  Climbing Aus ATC (RADAR)
08:14AM -13.3949 135.1859 324° Northwest 489 563 38,200 -120 Level Aus ATC (RADAR)
08:15AM -13.3254 135.1370 326° Northwest 495 570 38,100 -120 Descending Aus ATC (RADAR)
08:15AM -13.2327 135.0671 324° Northwest 482 555 38,100  Level Aus ATC (RADAR)
08:16AM -13.1333 134.9935 324° Northwest 474 545 38,100  Level Aus ATC (RADAR)
08:17AM -13.0409 134.9258 324° Northwest 478 550 38,100 -120 Level Aus ATC (RADAR)
08:18AM -12.9763 134.8789 325° Northwest 509 586 38,000 -120 Descending Aus ATC (RADAR)
08:19AM -12.8757 134.8047 324° Northwest 482 555 38,000  Level Aus ATC (RADAR)
08:19AM -12.7922 134.7429 324° Northwest 485 558 38,000  Level Aus ATC (RADAR)
08:20AM -12.6910 134.6681 324° Northwest 482 555 38,000  Level Aus ATC (RADAR)
08:21AM -12.6265 134.6209 324° Northwest 481 554 38,000 60 Level Aus ATC (RADAR)
08:22AM -12.5348 134.5532 324° Northwest 481 554 38,100  Climbing Aus ATC (RADAR)
08:23AM -12.4345 134.4787 324° Northwest 476 548 38,100 -120 Level Aus ATC (RADAR)
08:23AM -12.3750 134.4350 324° Northwest 492 566 38,000  Descending FlightAware
08:23AM -12.3412 134.4106 324° Northwest 483 556 38,100  Climbing Aus ATC (RADAR)
08:24AM -12.3020 134.3810 324° Northwest 493 567 38,000 -120 Descending FlightAware
08:24AM -12.2430 134.3370 324° Northwest 494 568 38,000 60 Level FlightAware
08:25AM -12.1680 134.2820 324° Northwest 495 570 38,100 60 Climbing FlightAware
08:26AM -12.0802 134.2186 324° Northwest 487 560 38,100  Level Aus ATC (RADAR)
08:26AM -12.0600 134.2030 324° Northwest 497 572 38,100  Level FlightAware
08:27AM -11.9930 134.1540 324° Northwest 497 572 38,100  Level FlightAware
08:27AM -11.9870 134.1500 324° Northwest 484 557 38,100  Level Aus ATC (RADAR)
08:27AM -11.9315 134.1091 324° Northwest 483 556 38,100  Level Aus ATC (RADAR)
08:27AM -11.9150 134.0970 324° Northwest 498 573 38,100  Level FlightAware
08:28AM -11.8376 134.0407 324° Northwest 484 557 38,100 -120 Level Aus ATC (RADAR)
08:28AM -11.8230 134.0290 324° Northwest 497 572 38,000 -180 Descending FlightAware
08:28AM -11.7760 133.9950 325° Northwest 497 572 38,000  Level FlightAware
08:29AM -11.6930 133.9340 324° Northwest 496 571 38,000  Level FlightAware
08:30AM -11.6180 133.8790 324° Northwest 495 570 38,000  Level FlightAware
08:31AM -11.5430 133.8250 325° Northwest 495 570 38,000  Level FlightAware
08:31AM -11.4839 133.7814 325° Northwest 478 550 38,000  Level Aus ATC (RADAR)
08:31AM -11.4780 133.7780 325° Northwest 495 570 38,000 420 Level FlightAware
08:32AM -11.4110 133.7280 325° Northwest 495 570 38,300 600 Climbing FlightAware
08:32AM -11.4002 133.7204 325° Northwest 479 551 38,400 1,020 Climbing Aus ATC (RADAR)
08:32AM -11.3390 133.6760 325° Northwest 497 572 39,000 960 Climbing FlightAware
08:33AM -11.2594 133.6176 325° Northwest 486 559 39,600 720 Climbing Aus ATC (RADAR)
08:33AM -11.2630 133.6200 325° Northwest 500 575 39,500 960 Descending FlightAware
08:34AM -11.2029 133.5769 325° Northwest 486 559 40,100 720 Climbing Aus ATC (RADAR)
08:34AM -11.1870 133.5650 325° Northwest 493 567 40,000 -120 Descending FlightAware
08:34AM -11.1073 133.5083 325° Northwest 490 564 40,000  Level Aus ATC (RADAR)
08:34AM -11.1040 133.5050 325° Northwest 494 568 40,000  Level FlightAware
08:35AM -11.0190 133.4430 324° Northwest 497 572 40,000  Level FlightAware
08:36AM -10.9595 133.4000 324° Northwest 483 556 40,000  Level Aus ATC (RADAR)
08:36AM -10.9440 133.3880 324° Northwest 499 574 40,000  Level FlightAware
08:36AM -10.8870 133.3470 325° Northwest 498 573 40,000  Level FlightAware
08:37AM -10.8130 133.2930 324° Northwest 498 573 40,000  Level FlightAware
08:38AM -10.7280 133.2320 325° Northwest 498 573 40,000  Level FlightAware
08:38AM -10.6475 133.1734 325° Northwest 491 565 40,000  Level Aus ATC (RADAR)
08:38AM -10.6510 133.1760 325° Northwest 498 573 40,000  Level FlightAware
08:39AM -10.5762 133.1221 325° Northwest 466 536 40,000  Level Aus ATC (RADAR)
08:39AM -10.5790 133.1240 325° Northwest 498 573 40,000  Level FlightAware
08:40AM -10.5201 133.0815 325° Northwest 475 547 40,000  Level Aus ATC (RADAR)
08:40AM -10.4920 133.0610 325° Northwest 498 573 40,000  Level FlightAware
08:41AM -10.4170 133.0070 325° Northwest 493 567 40,000  Level FlightAware
08:41AM -10.3410 132.9520 325° Northwest 500 575 40,000  Level FlightAware
08:42AM -10.2650 132.8970 325° Northwest 494 568 40,000 60 Level FlightAware
08:42AM -10.2090 132.8560 324° Northwest 495 570 40,100 60 Climbing FlightAware
08:43AM -10.1331 132.8020 324° Northwest 486 559 40,100 -180 Level Aus ATC (RADAR)
08:43AM -10.1330 132.8010 324° Northwest 495 570 40,000  Descending FlightAware
08:44AM -10.0293 132.7274 324° Northwest 484 557 40,100  Climbing Aus ATC (RADAR)
08:44AM -10.0200 132.7200 324° Northwest 496 571 40,000  Descending FlightAware
08:45AM -9.9433 132.6652 324° Northwest 487 560 40,100  Climbing Aus ATC (RADAR)
08:45AM -9.9440 132.6660 324° Northwest 495 570 40,000 -180 Descending FlightAware
08:45AM -9.8770 132.6170 324° Northwest 496 571 40,000  Level FlightAware
08:46AM -9.8010 132.5620 325° Northwest 496 571 40,000  Level FlightAware
08:46AM -9.7460 132.5220 324° Northwest 497 572 40,000  Level FlightAware
08:47AM -9.6690 132.4670 325° Northwest 496 571 40,000  Level FlightAware
08:48AM -9.6070 132.4220 325° Northwest 496 571 40,000  Level FlightAware
08:48AM -9.5825 132.4045 325° Northwest 491 565 40,000  Level Aus ATC (RADAR)
08:48AM -9.5360 132.3720 325° Northwest 496 571 40,000  Level FlightAware
08:49AM -9.4630 132.3180 324° Northwest 495 570 40,000  Level FlightAware
08:50AM -9.4030 132.2740 324° Northwest 495 570 40,000  Level FlightAware
08:50AM -9.2991 132.2027 324° Northwest 482 555 40,000  Level Aus ATC (RADAR)
08:50AM -9.2990 132.2020 324° Northwest 494 568 40,000  Level FlightAware
08:51AM -9.2140 132.1414 324° Northwest 483 556 40,000  Level Aus ATC (RADAR)
08:51AM -9.2140 132.1410 324° Northwest 494 568 40,000  Level FlightAware
08:52AM -9.1470 132.0930 325° Northwest 494 568 40,000  Level FlightAware
08:52AM -9.0720 132.0390 325° Northwest 495 570 40,000  Level FlightAware
08:52AM -9.0624 132.0335 325° Northwest 480 552 40,000  Level Aus ATC (RADAR)
08:53AM -9.0055 131.9926 325° Northwest 482 555 40,000  Level Aus ATC (RADAR)
08:53AM -8.9950 131.9840 325° Northwest 496 571 40,000  Level FlightAware
08:54AM -8.9299 131.9384 325° Northwest 481 554 40,000  Level Aus ATC (RADAR)
08:54AM -8.9020 131.9160 325° Northwest 495 570 40,000  Level FlightAware
08:54AM -8.8729 131.8981 325° Northwest 480 552 40,000  Level Aus ATC (RADAR)
08:55AM -8.8280 131.8590 323° Northwest 495 570 40,000  Level FlightAware
08:55AM -8.7700 131.8150 323° Northwest 495 570 40,000  Level FlightAware
08:56AM -8.6940 131.7570 323° Northwest 495 570 40,000  Level FlightAware
08:57AM -8.6360 131.7130 323° Northwest 495 570 40,000  Level FlightAware
08:57AM -8.5800 131.6700 323° Northwest 495 570 40,000  Level FlightAware
08:58AM -8.4353 131.5842 323° Northwest 492 566 40,000  Level Aus ATC (RADAR)
08:58AM -8.5250 131.6280 323° Northwest 495 570 40,000  Level FlightAware
08:58AM -8.4870 131.5990 323° Northwest 495 570 40,000  Level FlightAware
08:59AM -8.4110 131.5410 323° Northwest 495 570 40,000  Level FlightAware
09:00AM -8.3740 131.5130 323° Northwest 495 570 40,000  Level FlightAware
09:01AM -8.2620 131.4280 323° Northwest 495 570 40,000  Level FlightAware
09:01AM -8.2060 131.3850 323° Northwest 495 570 40,000  Level FlightAware
09:02AM -8.1480 131.3410 323° Northwest 495 570 40,000  Level FlightAware
09:03AM -8.0920 131.2990 323° Northwest 495 570 40,000  Level FlightAware
09:05AM -7.9083 131.1699 325° Northwest  Level FlightAware Approximate
09:06AM -7.8081 131.0996 325° Northwest  Level FlightAware Approximate
09:07AM -7.7079 131.0292 325° Northwest  Level FlightAware Approximate
09:08AM -7.6077 130.9590 325° Northwest  Level FlightAware Approximate
09:09AM -7.5074 130.8887 325° Northwest  Level FlightAware Approximate
09:10AM -7.4072 130.8185 325° Northwest  Level FlightAware Approximate
09:11AM -7.3069 130.7483 325° Northwest  Level FlightAware Approximate
09:12AM -7.2066 130.6781 325° Northwest  Level FlightAware Approximate
09:13AM -7.1064 130.6080 325° Northwest  Level FlightAware Approximate
09:14AM -7.0061 130.5379 325° Northwest  Level FlightAware Approximate
09:15AM -6.9058 130.4678 325° Northwest  Level FlightAware Approximate
09:16AM -6.8055 130.3978 325° Northwest  Level FlightAware Approximate
09:17AM -6.7051 130.3278 325° Northwest  Level FlightAware Approximate
09:18AM -6.6048 130.2578 325° Northwest  Level FlightAware Approximate
09:19AM -6.5045 130.1878 325° Northwest  Level FlightAware Approximate
09:20AM -6.4041 130.1179 325° Northwest  Level FlightAware Approximate
09:21AM -6.3038 130.0480 325° Northwest  Level FlightAware Approximate
09:22AM -6.2034 129.9781 325° Northwest  Level FlightAware Approximate
09:23AM -6.1030 129.9083 325° Northwest  Level FlightAware Approximate
09:24AM -6.0026 129.8385 325° Northwest  Level FlightAware Approximate
09:25AM -5.9022 129.7687 325° Northwest  Level FlightAware Approximate
09:26AM -5.8018 129.6989 325° Northwest  Level FlightAware Approximate
09:27AM -5.7014 129.6292 325° Northwest  Level FlightAware Approximate
09:28AM -5.6010 129.5594 325° Northwest  Level FlightAware Approximate
09:29AM -5.5005 129.4897 325° Northwest  Level FlightAware Approximate
09:30AM -5.4001 129.4201 325° Northwest  Level FlightAware Approximate
09:31AM -5.2996 129.3504 325° Northwest  Level FlightAware Approximate
09:32AM -5.1992 129.2808 325° Northwest  Level FlightAware Approximate
09:33AM -5.0987 129.2112 325° Northwest  Level FlightAware Approximate
09:34AM -4.9982 129.1416 325° Northwest  Level FlightAware Approximate
09:35AM -4.8978 129.0721 325° Northwest  Level FlightAware Approximate
09:36AM -4.7973 129.0025 325° Northwest  Level FlightAware Approximate
09:37AM -4.6968 128.9330 325° Northwest  Level FlightAware Approximate
09:38AM -4.5963 128.8635 325° Northwest  Level FlightAware Approximate
09:39AM -4.4958 128.7940 325° Northwest  Level FlightAware Approximate
09:40AM -4.3953 128.7246 325° Northwest  Level FlightAware Approximate
09:41AM -4.2947 128.6551 325° Northwest  Level FlightAware Approximate
09:42AM -4.1942 128.5857 325° Northwest  Level FlightAware Approximate
09:43AM -4.0937 128.5163 325° Northwest  Level FlightAware Approximate
09:44AM -3.9931 128.4469 325° Northwest  Level FlightAware Approximate
09:45AM -3.8926 128.3775 325° Northwest  Level FlightAware Approximate
09:46AM -3.7920 128.3082 325° Northwest  Level FlightAware Approximate
09:47AM -3.6915 128.2388 325° Northwest  Level FlightAware Approximate
09:48AM -3.5896 128.1712 330° Northwest  Level FlightAware Approximate
09:49AM -3.4842 128.1095 330° Northwest  Level FlightAware Approximate
09:50AM -3.3788 128.0477 330° Northwest  Level FlightAware Approximate
09:51AM -3.2734 127.9860 330° Northwest  Level FlightAware Approximate
09:52AM -3.1681 127.9243 330° Northwest  Level FlightAware Approximate
09:53AM -3.0627 127.8626 330° Northwest  Level FlightAware Approximate
09:54AM -2.9573 127.8009 330° Northwest  Level FlightAware Approximate
09:55AM -2.8519 127.7393 330° Northwest  Level FlightAware Approximate
09:56AM -2.7465 127.6776 330° Northwest  Level FlightAware Approximate
09:57AM -2.6411 127.6160 330° Northwest  Level FlightAware Approximate
09:58AM -2.5357 127.5544 330° Northwest  Level FlightAware Approximate
09:59AM -2.4303 127.4927 330° Northwest  Level FlightAware Approximate
10:00AM -2.3249 127.4311 330° Northwest  Level FlightAware Approximate
10:01AM -2.2195 127.3695 330° Northwest  Level FlightAware Approximate
10:02AM -2.1141 127.3079 330° Northwest  Level FlightAware Approximate
10:03AM -2.0087 127.2464 330° Northwest  Level FlightAware Approximate
10:04AM -1.9033 127.1848 330° Northwest  Level FlightAware Approximate
10:05AM -1.7979 127.1232 330° Northwest  Level FlightAware Approximate
10:06AM -1.6925 127.0616 330° Northwest  Level FlightAware Approximate
10:07AM -1.5871 127.0001 330° Northwest  Level FlightAware Approximate
10:08AM -1.4816 126.9385 330° Northwest  Level FlightAware Approximate
10:09AM -1.3762 126.8770 330° Northwest  Level FlightAware Approximate
10:10AM -1.2708 126.8155 330° Northwest  Level FlightAware Approximate
10:11AM -1.1654 126.7539 330° Northwest  Level FlightAware Approximate
10:12AM -1.0600 126.6924 330° Northwest  Level FlightAware Approximate
10:13AM -0.9545 126.6309 330° Northwest  Level FlightAware Approximate
10:14AM -0.8491 126.5694 330° Northwest  Level FlightAware Approximate
10:15AM -0.7437 126.5078 330° Northwest  Level FlightAware Approximate
10:16AM -0.6382 126.4463 330° Northwest  Level FlightAware Approximate
10:17AM -0.5328 126.3848 330° Northwest  Level FlightAware Approximate
10:18AM -0.4274 126.3233 330° Northwest  Level FlightAware Approximate
10:19AM -0.3219 126.2618 330° Northwest  Level FlightAware Approximate
10:20AM -0.2165 126.2003 330° Northwest  Level FlightAware Approximate
10:21AM -0.1111 126.1388 330° Northwest  Level FlightAware Approximate
10:22AM -0.0057 126.0773 330° Northwest  Level FlightAware Approximate
10:23AM 0.0998 126.0157 330° Northwest  Level FlightAware Approximate
10:24AM 0.2052 125.9542 330° Northwest  Level FlightAware Approximate
10:25AM 0.3106 125.8927 330° Northwest  Level FlightAware Approximate
10:26AM 0.4161 125.8312 330° Northwest  Level FlightAware Approximate
10:27AM 0.5215 125.7697 330° Northwest  Level FlightAware Approximate
10:28AM 0.6269 125.7082 330° Northwest  Level FlightAware Approximate
10:29AM 0.7323 125.6467 330° Northwest  Level FlightAware Approximate
10:30AM 0.8378 125.5852 330° Northwest  Level FlightAware Approximate
10:31AM 0.9432 125.5237 330° Northwest  Level FlightAware Approximate
10:32AM 1.0486 125.4621 330° Northwest  Level FlightAware Approximate
10:33AM 1.1541 125.4006 330° Northwest  Level FlightAware Approximate
10:34AM 1.2595 125.3391 330° Northwest  Level FlightAware Approximate
10:35AM 1.3649 125.2775 330° Northwest  Level FlightAware Approximate
10:36AM 1.4703 125.2160 330° Northwest  Level FlightAware Approximate
10:37AM 1.5757 125.1544 330° Northwest  Level FlightAware Approximate
10:38AM 1.6812 125.0929 330° Northwest  Level FlightAware Approximate
10:39AM 1.7866 125.0313 330° Northwest  Level FlightAware Approximate
10:40AM 1.8920 124.9697 330° Northwest  Level FlightAware Approximate
10:41AM 1.9974 124.9082 330° Northwest  Level FlightAware Approximate
10:42AM 2.1026 124.8462 329° Northwest  Level FlightAware Approximate
10:43AM 2.2076 124.7839 329° Northwest  Level FlightAware Approximate
10:44AM 2.3126 124.7216 329° Northwest  Level FlightAware Approximate
10:45AM 2.4176 124.6593 329° Northwest  Level FlightAware Approximate
10:46AM 2.5225 124.5969 329° Northwest  Level FlightAware Approximate
10:47AM 2.6275 124.5346 329° Northwest  Level FlightAware Approximate
10:48AM 2.7325 124.4723 329° Northwest  Level FlightAware Approximate
10:49AM 2.8375 124.4099 329° Northwest  Level FlightAware Approximate
10:50AM 2.9424 124.3475 329° Northwest  Level FlightAware Approximate
10:51AM 3.0474 124.2851 329° Northwest  Level FlightAware Approximate
10:52AM 3.1524 124.2228 329° Northwest  Level FlightAware Approximate
10:53AM 3.2573 124.1604 329° Northwest  Level FlightAware Approximate
10:54AM 3.3623 124.0979 329° Northwest  Level FlightAware Approximate
10:55AM 3.4672 124.0355 329° Northwest  Level FlightAware Approximate
10:56AM 3.5722 123.9731 329° Northwest  Level FlightAware Approximate
10:57AM 3.6771 123.9106 329° Northwest  Level FlightAware Approximate
10:58AM 3.7821 123.8481 329° Northwest  Level FlightAware Approximate
10:59AM 3.8870 123.7856 329° Northwest  Level FlightAware Approximate
11:00AM 3.9919 123.7231 329° Northwest  Level FlightAware Approximate
11:01AM 4.0981 123.6628 331° Northwest  Level FlightAware Approximate
11:02AM 4.2044 123.6027 331° Northwest  Level FlightAware Approximate
11:03AM 4.3107 123.5425 331° Northwest  Level FlightAware Approximate
11:04AM 4.4170 123.4823 331° Northwest  Level FlightAware Approximate
11:05AM 4.5233 123.4221 331° Northwest  Level FlightAware Approximate
11:06AM 4.6296 123.3619 331° Northwest  Level FlightAware Approximate
11:07AM 4.7358 123.3017 331° Northwest  Level FlightAware Approximate
11:08AM 4.8421 123.2414 331° Northwest  Level FlightAware Approximate
11:09AM 4.9484 123.1811 331° Northwest  Level FlightAware Approximate
11:10AM 5.0546 123.1208 331° Northwest  Level FlightAware Approximate
11:11AM 5.1609 123.0605 331° Northwest  Level FlightAware Approximate
11:12AM 5.2671 123.0002 331° Northwest  Level FlightAware Approximate
11:13AM 5.3734 122.9398 331° Northwest  Level FlightAware Approximate
11:14AM 5.4796 122.8794 331° Northwest  Level FlightAware Approximate
11:15AM 5.5858 122.8190 330° Northwest  Level FlightAware Approximate
11:16AM 5.6921 122.7586 330° Northwest  Level FlightAware Approximate
11:17AM 5.7983 122.6982 330° Northwest  Level FlightAware Approximate
11:18AM 5.9045 122.6377 330° Northwest  Level FlightAware Approximate
11:19AM 6.0107 122.5772 330° Northwest  Level FlightAware Approximate
11:20AM 6.1169 122.5167 330° Northwest  Level FlightAware Approximate
11:21AM 6.2231 122.4562 330° Northwest  Level FlightAware Approximate
11:22AM 6.3293 122.3956 330° Northwest  Level FlightAware Approximate
11:23AM 6.4355 122.3350 330° Northwest  Level FlightAware Approximate
11:24AM 6.5416 122.2744 330° Northwest  Level FlightAware Approximate
11:25AM 6.6478 122.2138 330° Northwest  Level FlightAware Approximate
11:26AM 6.7539 122.1531 330° Northwest  Level FlightAware Approximate
11:27AM 6.8601 122.0924 330° Northwest  Level FlightAware Approximate
11:28AM 6.9676 122.0344 334° Northwest  Level FlightAware Approximate
11:29AM 7.0774 121.9806 334° Northwest  Level FlightAware Approximate
11:30AM 7.1872 121.9268 334° Northwest  Level FlightAware Approximate
11:31AM 7.2969 121.8729 334° Northwest  Level FlightAware Approximate
11:32AM 7.4066 121.8190 334° Northwest  Level FlightAware Approximate
11:33AM 7.5163 121.7651 334° Northwest  Level FlightAware Approximate
11:34AM 7.6261 121.7111 334° Northwest  Level FlightAware Approximate
11:35AM 7.7358 121.6571 334° Northwest  Level FlightAware Approximate
11:36AM 7.8455 121.6031 334° Northwest  Level FlightAware Approximate
11:37AM 7.9552 121.5491 334° Northwest  Level FlightAware Approximate
11:38AM 8.0649 121.4950 334° Northwest  Level FlightAware Approximate
11:39AM 8.1746 121.4409 334° Northwest  Level FlightAware Approximate
11:40AM 8.2843 121.3868 334° Northwest  Level FlightAware Approximate
11:41AM 8.3939 121.3326 334° Northwest  Level FlightAware Approximate
11:42AM 8.5036 121.2785 334° Northwest  Level FlightAware Approximate
11:43AM 8.6132 121.2242 334° Northwest  Level FlightAware Approximate
11:44AM 8.7229 121.1700 334° Northwest  Level FlightAware Approximate
11:45AM 8.8325 121.1157 334° Northwest  Level FlightAware Approximate
11:46AM 8.9422 121.0614 334° Northwest  Level FlightAware Approximate
11:47AM 9.0518 121.0071 334° Northwest  Level FlightAware Approximate
11:48AM 9.1614 120.9527 334° Northwest  Level FlightAware Approximate
11:49AM 9.2710 120.8983 334° Northwest  Level FlightAware Approximate
11:50AM 9.3806 120.8438 334° Northwest  Level FlightAware Approximate
11:51AM 9.4902 120.7893 334° Northwest  Level FlightAware Approximate
11:52AM 9.5998 120.7348 334° Northwest  Level FlightAware Approximate
11:53AM 9.7094 120.6803 334° Northwest  Level FlightAware Approximate
11:54AM 9.8189 120.6257 334° Northwest  Level FlightAware Approximate
11:55AM 9.9285 120.5711 334° Northwest  Level FlightAware Approximate
11:56AM 10.0380 120.5164 334° Northwest  Level FlightAware Approximate
11:56AM 12.5690 119.2330 334° Northwest 469 540 41,000  Level FlightAware
11:57AM 10.1476 120.4617 334° Northwest  Level FlightAware Approximate
11:57AM 12.6520 119.1900 333° Northwest 469 540 41,000  Level FlightAware
11:58AM 12.7950 119.1160 333° Northwest 469 540 41,000  Level FlightAware
11:59AM 12.8550 119.0850 333° Northwest 469 540 41,000  Level FlightAware
11:59AM 12.8970 119.0620 332° Northwest 469 540 41,000  Level FlightAware
12:00PM 13.0390 118.9920 334° Northwest 470 541 41,000 60 Level FlightAware
12:01PM 13.1300 118.9460 334° Northwest 468 539 41,100  Climbing FlightAware
12:02PM 13.2000 118.9100 333° Northwest 468 539 41,000 -120 Descending FlightAware
12:02PM 13.2800 118.8690 333° Northwest 463 533 41,000  Level FlightAware
12:03PM 13.3390 118.8390 334° Northwest 459 528 41,000  Level FlightAware
12:03PM 13.4100 118.8020 333° Northwest 457 526 41,000  Level FlightAware
12:04PM 13.4930 118.7590 333° Northwest 456 525 41,000  Level FlightAware
12:05PM 13.5580 118.7250 333° Northwest 456 525 41,000  Level FlightAware
12:05PM 13.6250 118.6910 334° Northwest 454 522 41,000  Level FlightAware
12:06PM 13.7000 118.6520 333° Northwest 452 520 41,000  Level FlightAware
12:07PM 13.7930 118.6050 334° Northwest 450 518 41,000  Level FlightAware
12:08PM 13.8660 118.5670 333° Northwest 449 517 41,000  Level FlightAware
12:08PM 13.9390 118.5290 333° Northwest 450 518 41,000  Level FlightAware
12:09PM 13.9980 118.4980 333° Northwest 450 518 41,000  Level FlightAware
12:09PM 14.0780 118.4570 334° Northwest 451 519 41,000 -120 Level FlightAware
12:10PM 14.1510 118.4190 333° Northwest 452 520 40,900 -540 Descending FlightAware
12:11PM 14.3070 118.3380 333° Northwest 456 525 40,000 -420 Descending FlightAware
12:12PM 14.3940 118.2930 333° Northwest 456 525 40,000  Level FlightAware
12:13PM 14.4720 118.2530 334° Northwest 464 534 40,000  Level FlightAware
12:13PM 14.5280 118.2230 333° Northwest 458 527 40,000  Level FlightAware
12:14PM 14.5950 118.1890 334° Northwest 453 521 40,000  Level FlightAware
12:15PM 14.6960 118.1360 333° Northwest 455 524 40,000  Level FlightAware
12:16PM 14.7690 118.0980 333° Northwest 456 525 40,000  Level FlightAware
12:16PM 14.8400 118.0610 333° Northwest 458 527 40,000  Level FlightAware
12:17PM 14.9210 118.0180 333° Northwest 459 528 40,000  Level FlightAware
12:18PM 14.9960 117.9790 333° Northwest 454 522 40,000  Level FlightAware
12:18PM 15.0640 117.9440 334° Northwest 451 519 40,000  Level FlightAware
12:19PM 15.1400 117.9040 333° Northwest 448 516 40,000  Level FlightAware
12:20PM 15.2230 117.8610 333° Northwest 449 517 40,000  Level FlightAware
12:20PM 15.3090 117.8150 333° Northwest 449 517 40,000  Level FlightAware
12:21PM 15.3890 117.7740 334° Northwest 451 519 40,000  Level FlightAware
12:22PM 15.4920 117.7180 332° Northwest 452 520 40,000  Level FlightAware
12:23PM 15.5670 117.6770 332° Northwest 452 520 40,000  Level FlightAware
12:23PM 15.6280 117.6430 332° Northwest 452 520 40,000  Level FlightAware
12:24PM 15.7020 117.6020 332° Northwest 452 520 40,000  Level FlightAware
12:25PM 15.7600 117.5700 332° Northwest 452 520 40,000  Level FlightAware
12:26PM 15.8360 117.5290 333° Northwest 452 520 40,000  Level FlightAware
12:26PM 15.8920 117.4970 331° Northwest 452 520 40,000  Level FlightAware
12:27PM 15.9670 117.4560 332° Northwest 452 520 40,000  Level FlightAware
12:28PM 16.0270 117.4230 332° Northwest 452 520 40,000  Level FlightAware
12:28PM 16.0830 117.3910 331° Northwest 452 520 40,000  Level FlightAware
12:29PM 16.1570 117.3510 333° Northwest 452 520 40,000  Level FlightAware
12:30PM 16.2170 117.3180 332° Northwest 452 520 40,000  Level FlightAware
12:30PM 16.2730 117.2860 331° Northwest 452 520 40,000  Level FlightAware
12:31PM 16.3470 117.2450 332° Northwest 452 520 40,000 -300 Level FlightAware
12:34PM 16.6069 117.1087 333° Northwest  Level FlightAware Approximate
12:35PM 16.7160 117.0515 333° Northwest  Level FlightAware Approximate
12:36PM 16.8250 116.9941 333° Northwest  Level FlightAware Approximate
12:37PM 16.9340 116.9367 333° Northwest  Level FlightAware Approximate
12:38PM 17.0429 116.8792 333° Northwest  Level FlightAware Approximate
12:39PM 17.1519 116.8217 333° Northwest  Level FlightAware Approximate
12:40PM 17.2609 116.7641 333° Northwest  Level FlightAware Approximate
12:41PM 17.3698 116.7064 333° Northwest  Level FlightAware Approximate
12:42PM 17.4787 116.6487 333° Northwest  Level FlightAware Approximate
12:43PM 17.5876 116.5908 333° Northwest  Level FlightAware Approximate
12:44PM 17.6965 116.5330 333° Northwest  Level FlightAware Approximate
12:45PM 17.8054 116.4750 333° Northwest  Level FlightAware Approximate
12:46PM 17.9142 116.4170 333° Northwest  Level FlightAware Approximate
12:47PM 18.0231 116.3589 333° Northwest  Level FlightAware Approximate
12:48PM 18.1319 116.3007 333° Northwest  Level FlightAware Approximate
12:49PM 18.2407 116.2424 333° Northwest  Level FlightAware Approximate
12:50PM 18.3494 116.1841 333° Northwest  Level FlightAware Approximate
12:51PM 18.4582 116.1257 333° Northwest  Level FlightAware Approximate
12:52PM 18.5670 116.0673 333° Northwest  Level FlightAware Approximate
12:53PM 18.6757 116.0087 333° Northwest  Level FlightAware Approximate
12:54PM 18.7844 115.9501 333° Northwest  Level FlightAware Approximate
12:55PM 18.8931 115.8914 333° Northwest  Level FlightAware Approximate
12:56PM 19.0018 115.8327 333° Northwest  Level FlightAware Approximate
12:57PM 19.1104 115.7738 333° Northwest  Level FlightAware Approximate
12:58PM 19.2190 115.7149 333° Northwest  Level FlightAware Approximate
12:59PM 19.3277 115.6559 333° Northwest  Level FlightAware Approximate
01:00PM 19.4363 115.5968 333° Northwest  Level FlightAware Approximate
01:01PM 19.5448 115.5377 333° Northwest  Level FlightAware Approximate
01:02PM 19.6534 115.4785 333° Northwest  Level FlightAware Approximate
01:03PM 19.7619 115.4192 333° Northwest  Level FlightAware Approximate
01:04PM 19.8705 115.3598 333° Northwest  Level FlightAware Approximate
01:05PM 19.9790 115.3003 333° Northwest  Level FlightAware Approximate
01:06PM 20.0874 115.2407 333° Northwest  Level FlightAware Approximate
01:07PM 20.1959 115.1811 333° Northwest  Level FlightAware Approximate
01:08PM 20.3043 115.1214 333° Northwest  Level FlightAware Approximate
01:09PM 20.4128 115.0616 333° Northwest  Level FlightAware Approximate
01:10PM 20.5212 115.0017 333° Northwest  Level FlightAware Approximate
01:11PM 20.6295 114.9417 333° Northwest  Level FlightAware Approximate
01:12PM 20.7379 114.8816 333° Northwest  Level FlightAware Approximate
01:13PM 20.8462 114.8215 333° Northwest  Level FlightAware Approximate
01:14PM 20.9546 114.7612 333° Northwest  Level FlightAware Approximate
01:15PM 21.0629 114.7009 333° Northwest  Level FlightAware Approximate
01:16PM 21.1711 114.6405 333° Northwest  Level FlightAware Approximate
01:17PM 21.2794 114.5800 332° Northwest  Level FlightAware Approximate
01:18PM 21.3876 114.5194 332° Northwest  Level FlightAware Approximate
01:18PM 21.1320 113.7350 332° Northwest 408 470 26,000  Level FlightAware
01:19PM 21.4958 114.4587 332° Northwest  Level FlightAware Approximate
01:19PM 21.1770 113.6710 307° West 399 459 24,800  Level FlightAware
01:20PM 21.2210 113.6070 306° West 397 457 24,200 -360 Descending FlightAware
01:21PM 21.2770 113.5250 306° West 397 457 24,200  Level FlightAware
01:21PM 21.3080 113.4790 306° West 397 457 24,200  Level FlightAware
01:22PM 21.3530 113.4120 306° West 397 457 24,200  Level FlightAware
01:23PM 21.3850 113.3650 306° West 397 457 24,200 -1,500 Level FlightAware
01:25PM 21.5917 113.4382 18° North  Level Estimated
01:26PM 21.7077 113.4793 18° North  Level Estimated
01:27PM 21.8236 113.5205 18° North  Level Estimated
01:28PM 21.9395 113.5617 18° North  Level Estimated
01:29PM 22.0554 113.6031 18° North  Level Estimated
01:30PM 22.1712 113.6444 18° North  Level Estimated
01:31PM 22.2871 113.6859 18° North  Level Estimated
01:32PM 22.4030 113.7274 18° North  Level Estimated
01:32PM 22.1520 113.2430 18° North 310 357 9,200  Level FlightAware
01:33PM 22.5188 113.7690 18° North  Level Estimated
01:33PM 22.1920 113.2370 352° North 304 350 9,100  Level FlightAware
01:33PM 22.2280 113.2300 350° North 301 346 9,100  Level FlightAware
01:34PM 22.2890 113.2200 351° North 299 344 9,100  Level FlightAware
01:34PM 22.3180 113.2150 351° North 299 344 9,100  Level FlightAware
01:35PM 22.3510 113.2630 53° Northeast 308 354 9,100  Level FlightAware
01:35PM 22.3860 113.2830 28° Northeast 307 353 9,100  Level FlightAware
01:36PM 22.4210 113.3050 30° Northeast 305 351 9,100  Level FlightAware
01:36PM 22.4560 113.3260 29° Northeast 305 351 9,100  Level FlightAware
01:37PM 22.4890 113.3460 29° Northeast 308 354 9,100 -780 Level FlightAware
01:37PM 22.5260 113.3680 29° Northeast 305 351 8,400 -1,080 Descending FlightAware
01:37PM 22.5580 113.3870 29° Northeast 302 348 8,100 -660 Descending FlightAware
01:38PM 22.5940 113.4090 29° Northeast 300 345 7,800 -1,020 Descending FlightAware
01:38PM 22.6260 113.4280 29° Northeast 296 341 7,200 -1,440 Descending FlightAware
01:39PM 22.6450 113.4390 28° Northeast 292 336 6,800 -1,200 Descending FlightAware
01:39PM 22.6800 113.4610 30° Northeast 283 326 6,300 -780 Descending FlightAware
01:40PM 22.7090 113.4780 28° Northeast 262 302 6,100 -300 Descending FlightAware
01:40PM 22.7270 113.4900 32° Northeast 242 278 6,100  Level FlightAware
01:40PM 22.7470 113.5020 29° Northeast 217 250 6,100  Level FlightAware
01:41PM 22.7660 113.5130 28° Northeast 215 247 6,100 -120 Level FlightAware
01:41PM 22.7960 113.5310 29° Northeast 215 247 6,000 -540 Descending FlightAware
01:42PM 22.8210 113.5460 29° Northeast 213 245 5,600 -1,020 Descending FlightAware
01:42PM 22.8450 113.5610 30° Northeast 213 245 5,100 -1,020 Descending FlightAware
01:42PM 22.8510 113.5740 63° Northeast 206 237 4,900 -1,140 Descending FlightAware
01:43PM 22.8630 113.6030 66° East 206 237 4,300 -1,260 Descending FlightAware
01:43PM 22.8730 113.6290 67° East 204 235 3,700 -1,260 Descending FlightAware
01:44PM 22.8720 113.6430 94° East 196 226 3,400 -1,560 Descending FlightAware
01:44PM 22.8670 113.6530 118° Southeast 192 221 3,000 -1,260 Descending FlightAware
01:44PM 22.8500 113.6760 129° Southeast 189 217 2,500 -480 Descending FlightAware
01:45PM 22.8300 113.6890 149° Southeast 187 215 2,600 60 Climbing FlightAware
01:45PM 22.8090 113.7000 154° Southeast 186 214 2,600  Level FlightAware
01:45PM 22.7970 113.7070 152° Southeast 186 214 2,600  Level FlightAware
01:46PM 22.7790 113.7160 155° Southeast 187 215 2,600 -300 Level FlightAware
01:47PM 22.7540 113.7300 153° Southeast 150 173 2,300 -660 Descending FlightAware
01:47PM 22.7310 113.7430 152° Southeast 139 160 1,800 -840 Descending FlightAware
01:48PM 22.7180 113.7500 154° Southeast 141 162 1,600 -720 Descending FlightAware
01:48PM 22.7010 113.7590 154° Southeast 145 167 1,200 -720 Descending FlightAware
01:48PM 22.6820 113.7700 152° Southeast 144 166 900 -720 Descending FlightAware
01:49PM 22.6650 113.7790 154° Southeast 144 166 500 -780 Descending FlightAware
01:49PM 22.6490 113.7880 153° Southeast 143 165 200 -720 Descending FlightAware
01:50PM 22.6370 113.7940 155° Southeast 48 55 -420 Descending FlightAware
01:50PM 22.6360 113.7950 137° Southeast 26 30  Level FlightAware
01:50PM 22.6350 113.7960 137° Southeast 28 32  Level FlightAware
01:52PM 22.6360 113.7980 62° Northeast 26 30  Level FlightAware
01:52PM 22.6360 113.7990 90° East 15 17  Level FlightAware
01:52PM 22.6370 113.8000 43° Northeast 17 20  Level FlightAware
01:53PM 22.6380 113.8020 62° Northeast 17 20  Level FlightAware
01:54PM 22.6390 113.8050 70° East 20 23  Level FlightAware
01:54PM 22.6400 113.8070 62° Northeast 31 36  Level FlightAware
01:54PM 22.6410 113.8080 43° Northeast 24 28  Level FlightAware
01:57PM 22.6395 113.8124 111° Southeast  Level Estimated
01:57PM 22.6410 113.8090 111° Southeast 23 26  Level FlightAware
01:57PM 22.6420 113.8120 70° East 27 31  Level FlightAware
01:58PM 22.6400 113.8100 223° Southwest 19 22  Level FlightAware
01:58PM 22.6370 113.8120 148° Southeast 23 26  Level FlightAware
01:58PM 22.6360 113.8130 137° Southeast 18 21  Level FlightAware
01:59PM 22.6350 113.8140 137° Southeast 31 36  Level FlightAware
02:00PM 22.6340 113.8150 137° Southeast 17 20  Level FlightAware
02:01PM 22.6350 113.8160 43° Northeast 26 30  Level FlightAware
02:01PM 22.6360 113.8190 70° East 26 30  Level FlightAware
02:04PM 22.6395 113.8124 300° West  Level Estimated
02:05PM 22.6395 113.8124 25° Northeast  Level Estimated
02:06PM 22.6395 113.8124 25° Northeast  Level Estimated
02:07PM 22.6395 113.8124 25° Northeast  Level Estimated
02:08PM 22.6395 113.8124 25° Northeast  Level Estimated
02:09PM 22.6395 113.8124 25° Northeast  Level Estimated
02:10PM 22.6395 113.8124 25° Northeast  Level Estimated
02:11PM 22.6395 113.8124 25° Northeast  Level Estimated
02:12PM 22.6395 113.8124 25° Northeast  Level Estimated